Time;durP1;ratioP1;P1;durP2;ratioP2;P2;SDS_P1;SDS_P2;PMS_P1;PMS_P2;Temp;Humidity;BMP_temperature;BMP_pressure;BME280_temperature;BME280_humidity;BME280_pressure;Samples;Min_cycle;Max_cycle;Signal;HPM_P1;HPM_P2
2023/02/25 00:00:28;;;;;;;;;17.25;14.25;;;;;-147.17;100.00;-15917.19;5028130;28;51103;-60
2023/02/25 00:02:53;;;;;;;;;21.25;18.75;;;;;-147.17;100.00;-15917.19;5022830;28;51194;-60
2023/02/25 00:05:19;;;;;;;;;15.25;15.00;;;;;-147.17;100.00;-15917.19;5021837;28;51185;-61
2023/02/25 00:07:44;;;;;;;;;19.25;14.00;;;;;-147.17;100.00;-15917.19;5030450;28;51014;-60
2023/02/25 00:10:12;;;;;;;;;13.75;13.50;;;;;-147.17;100.00;-15917.19;5032855;28;51045;-59
2023/02/25 00:12:38;;;;;;;;;18.50;16.00;;;;;-147.17;100.00;-15917.19;5021353;28;51225;-61
2023/02/25 00:15:05;;;;;;;;;18.50;17.25;;;;;-147.17;100.00;-15917.19;5017070;28;51052;-60
2023/02/25 00:17:31;;;;;;;;;16.50;15.25;;;;;-147.17;100.00;-15917.19;5019412;28;51178;-60
2023/02/25 00:19:57;;;;;;;;;15.75;15.00;;;;;-147.17;100.00;-15917.19;5007287;28;51853;-60
2023/02/25 00:22:23;;;;;;;;;20.25;17.00;;;;;-147.17;100.00;-15917.19;5021463;28;51172;-60
2023/02/25 00:24:53;;;;;;;;;19.00;16.25;;;;;-147.17;100.00;-15917.19;5016134;28;51396;-60
2023/02/25 00:27:19;;;;;;;;;18.50;16.00;;;;;-147.17;100.00;-15917.19;5023288;28;51305;-59
2023/02/25 00:29:44;;;;;;;;;12.75;11.25;;;;;-147.17;100.00;-15917.19;5027646;28;51139;-58
2023/02/25 00:32:10;;;;;;;;;18.50;16.50;;;;;-147.17;100.00;-15917.19;5028753;28;51147;-59
2023/02/25 00:34:35;;;;;;;;;14.50;13.25;;;;;-147.17;100.00;-15917.19;5013337;28;51339;-61
2023/02/25 00:37:01;;;;;;;;;16.75;13.75;;;;;-147.17;100.00;-15917.19;5007754;28;52928;-60
2023/02/25 00:39:40;;;;;;;;;10.75;10.50;;;;;-147.17;100.00;-15917.19;5024615;28;51992;-60
2023/02/25 00:42:07;;;;;;;;;10.50;10.00;;;;;-147.17;100.00;-15917.19;5025221;28;51550;-60
2023/02/25 00:44:33;;;;;;;;;13.00;9.25;;;;;-147.17;100.00;-15917.19;5027866;28;51144;-60
2023/02/25 00:46:58;;;;;;;;;13.50;10.25;;;;;-147.17;100.00;-15917.19;5020287;28;51644;-59
2023/02/25 00:49:25;;;;;;;;;8.00;7.50;;;;;-147.17;100.00;-15917.19;5016857;28;51083;-59
2023/02/25 00:51:51;;;;;;;;;9.75;9.00;;;;;-147.17;100.00;-15917.19;5031539;28;50947;-59
2023/02/25 00:54:17;;;;;;;;;10.00;9.00;;;;;-147.17;100.00;-15917.19;5021436;28;51283;-59
2023/02/25 00:56:42;;;;;;;;;9.50;8.25;;;;;-147.17;100.00;-15917.19;5016867;28;51764;-60
2023/02/25 00:59:07;;;;;;;;;8.25;8.00;;;;;-147.17;100.00;-15917.19;5015302;28;51203;-59
2023/02/25 01:01:33;;;;;;;;;8.25;8.00;;;;;-147.17;100.00;-15917.19;5018078;28;51229;-59
2023/02/25 01:03:59;;;;;;;;;10.50;8.75;;;;;-147.17;100.00;-15917.19;5009746;28;51329;-58
2023/02/25 01:06:27;;;;;;;;;12.25;7.50;;;;;-147.17;100.00;-15917.19;5016630;28;52349;-60
2023/02/25 01:08:53;;;;;;;;;7.00;7.00;;;;;-147.17;100.00;-15917.19;5019062;28;51180;-59
2023/02/25 01:11:28;;;;;;;;;7.00;7.00;;;;;-147.17;100.00;-15917.19;4998389;28;51023;-60
2023/02/25 01:13:55;;;;;;;;;6.75;6.75;;;;;-147.17;100.00;-15917.19;5004232;28;51369;-60
2023/02/25 01:16:23;;;;;;;;;6.75;4.25;;;;;-147.17;100.00;-15917.19;5022806;28;52250;-59
2023/02/25 01:18:57;;;;;;;;;7.75;6.50;;;;;-147.17;100.00;-15917.19;5013524;28;50962;-59
2023/02/25 01:21:26;;;;;;;;;4.50;4.50;;;;;-147.17;100.00;-15917.19;5026874;28;51089;-59
2023/02/25 01:24:03;;;;;;;;;4.00;3.00;;;;;-147.17;100.00;-15917.19;5019090;28;51146;-58
2023/02/25 01:26:31;;;;;;;;;6.25;5.00;;;;;-147.17;100.00;-15917.19;5020172;28;51823;-59
2023/02/25 01:28:57;;;;;;;;;4.75;4.75;;;;;-147.17;100.00;-15917.19;5030351;28;50967;-59
2023/02/25 01:31:28;;;;;;;;;5.50;5.50;;;;;-147.17;100.00;-15917.19;5021972;28;51097;-59
2023/02/25 01:33:57;;;;;;;;;7.50;7.00;;;;;-147.17;100.00;-15917.19;5013146;28;51076;-61
2023/02/25 01:36:23;;;;;;;;;8.25;7.25;;;;;-147.17;100.00;-15917.19;5023199;28;52102;-64
2023/02/25 01:38:49;;;;;;;;;7.25;5.75;;;;;-147.17;100.00;-15917.19;5011941;28;51043;-60
2023/02/25 01:41:14;;;;;;;;;4.75;4.00;;;;;-147.17;100.00;-15917.19;5003673;28;50996;-59
2023/02/25 01:43:40;;;;;;;;;8.50;6.75;;;;;-147.17;100.00;-15917.19;5033205;28;50861;-59
2023/02/25 01:46:05;;;;;;;;;7.75;7.00;;;;;-147.17;100.00;-15917.19;5028783;28;52072;-60
2023/02/25 01:48:34;;;;;;;;;6.75;4.50;;;;;-147.17;100.00;-15917.19;5015893;28;51007;-60
2023/02/25 01:51:08;;;;;;;;;7.00;6.00;;;;;-147.17;100.00;-15917.19;5017049;28;51241;-61
2023/02/25 01:53:39;;;;;;;;;5.25;4.75;;;;;-147.17;100.00;-15917.19;5020637;28;51191;-60
2023/02/25 01:56:06;;;;;;;;;6.25;6.00;;;;;-147.17;100.00;-15917.19;5029512;28;51254;-60
2023/02/25 01:58:33;;;;;;;;;6.50;3.75;;;;;-147.17;100.00;-15917.19;5018567;28;51124;-60
2023/02/25 02:00:59;;;;;;;;;6.00;5.00;;;;;-147.17;100.00;-15917.19;5027315;28;52449;-59
2023/02/25 02:03:29;;;;;;;;;6.00;4.00;;;;;-147.17;100.00;-15917.19;5020489;28;50947;-60
2023/02/25 02:06:17;;;;;;;;;4.00;3.00;;;;;-147.17;100.00;-15917.19;5029512;28;51979;-59
2023/02/25 02:08:44;;;;;;;;;3.00;2.00;;;;;-147.17;100.00;-15917.19;5013813;28;51030;-59
2023/02/25 02:11:09;;;;;;;;;4.25;4.00;;;;;-147.17;100.00;-15917.19;5022576;28;51186;-59
2023/02/25 02:13:40;;;;;;;;;4.75;4.00;;;;;-147.17;100.00;-15917.19;5017710;28;51011;-59
2023/02/25 02:16:17;;;;;;;;;6.50;4.00;;;;;-147.17;100.00;-15917.19;4995368;28;51224;-59
2023/02/25 02:18:48;;;;;;;;;6.50;4.00;;;;;-147.17;100.00;-15917.19;5029178;28;51164;-60
2023/02/25 02:21:33;;;;;;;;;4.25;4.25;;;;;-147.17;100.00;-15917.19;5030086;28;51087;-59
2023/02/25 02:24:13;;;;;;;;;3.00;3.00;;;;;-147.17;100.00;-15917.19;5019307;28;51295;-59
2023/02/25 02:26:50;;;;;;;;;6.50;5.75;;;;;-147.17;100.00;-15917.19;5019792;28;51717;-59
2023/02/25 02:29:29;;;;;;;;;6.25;5.00;;;;;-147.17;100.00;-15917.19;5015558;28;51310;-59
2023/02/25 02:31:58;;;;;;;;;7.50;5.25;;;;;-147.17;100.00;-15917.19;5025635;28;51092;-58
2023/02/25 02:34:35;;;;;;;;;6.00;6.00;;;;;-147.17;100.00;-15917.19;5021008;28;51096;-60
2023/02/25 02:37:00;;;;;;;;;7.00;6.75;;;;;-147.17;100.00;-15917.19;5014439;28;51354;-59
2023/02/25 02:39:35;;;;;;;;;6.75;4.00;;;;;-147.17;100.00;-15917.19;5016085;28;51131;-59
2023/02/25 02:42:03;;;;;;;;;6.50;5.75;;;;;-147.17;100.00;-15917.19;5025328;28;51116;-60
2023/02/25 02:44:40;;;;;;;;;2.00;2.00;;;;;-147.17;100.00;-15917.19;5029302;28;51130;-58
2023/02/25 02:47:15;;;;;;;;;6.50;6.00;;;;;-147.17;100.00;-15917.19;5021077;28;51001;-58
2023/02/25 02:49:52;;;;;;;;;6.75;5.00;;;;;-147.17;100.00;-15917.19;5015168;28;51023;-59
2023/02/25 02:52:30;;;;;;;;;4.50;3.50;;;;;-147.17;100.00;-15917.19;5007523;28;51468;-59
2023/02/25 02:55:20;;;;;;;;;7.00;5.50;;;;;-147.17;100.00;-15917.19;5020062;28;51098;-59
2023/02/25 02:57:48;;;;;;;;;4.50;3.50;;;;;-147.17;100.00;-15917.19;5014986;28;51805;-58
2023/02/25 03:00:17;;;;;;;;;3.75;3.00;;;;;-147.17;100.00;-15917.19;5027433;28;51180;-58
2023/02/25 03:02:50;;;;;;;;;3.00;3.00;;;;;-147.17;100.00;-15917.19;5029289;28;50995;-59
2023/02/25 03:05:17;;;;;;;;;3.75;3.75;;;;;-147.17;100.00;-15917.19;5003987;28;51135;-58
2023/02/25 03:07:50;;;;;;;;;3.00;3.00;;;;;-147.17;100.00;-15917.19;5020453;28;52058;-60
2023/02/25 03:10:20;;;;;;;;;4.00;3.50;;;;;-147.17;100.00;-15917.19;5021556;28;51099;-59
2023/02/25 03:12:45;;;;;;;;;6.00;4.00;;;;;-147.17;100.00;-15917.19;5027197;28;51168;-59
2023/02/25 03:15:13;;;;;;;;;7.00;5.50;;;;;-147.17;100.00;-15917.19;5017581;28;51474;-59
2023/02/25 03:17:43;;;;;;;;;2.75;1.50;;;;;-147.17;100.00;-15917.19;5023612;28;52101;-59
2023/02/25 03:20:19;;;;;;;;;5.50;4.00;;;;;-147.17;100.00;-15917.19;5001369;28;51132;-59
2023/02/25 03:22:48;;;;;;;;;6.50;4.50;;;;;-147.17;100.00;-15917.19;5032693;28;51043;-60
2023/02/25 03:25:37;;;;;;;;;4.00;3.50;;;;;-147.17;100.00;-15917.19;5027851;28;51274;-61
2023/02/25 03:28:29;;;;;;;;;4.25;3.75;;;;;-147.17;100.00;-15917.19;5015089;28;51772;-59
2023/02/25 03:31:09;;;;;;;;;7.25;6.50;;;;;-147.17;100.00;-15917.19;5013993;28;51334;-59
2023/02/25 03:33:49;;;;;;;;;3.75;3.50;;;;;-147.17;100.00;-15917.19;5020571;28;51086;-58
2023/02/25 03:36:25;;;;;;;;;7.25;6.00;;;;;-147.17;100.00;-15917.19;5021894;28;51227;-59
2023/02/25 03:38:56;;;;;;;;;6.50;3.00;;;;;-147.17;100.00;-15917.19;5014136;28;53286;-59
2023/02/25 03:41:27;;;;;;;;;8.25;5.50;;;;;-147.17;100.00;-15917.19;5027459;28;51352;-60
2023/02/25 03:43:55;;;;;;;;;5.50;3.50;;;;;-147.17;100.00;-15917.19;5020588;28;51099;-60
2023/02/25 03:46:21;;;;;;;;;6.00;3.75;;;;;-147.17;100.00;-15917.19;5027292;28;51061;-59
2023/02/25 03:48:50;;;;;;;;;4.00;4.00;;;;;-147.17;100.00;-15917.19;5011992;28;52087;-60
2023/02/25 03:51:22;;;;;;;;;3.00;3.00;;;;;-147.17;100.00;-15917.19;5015525;28;51205;-59
2023/02/25 03:53:49;;;;;;;;;8.00;7.00;;;;;-147.17;100.00;-15917.19;5027251;28;51028;-59
2023/02/25 03:56:14;;;;;;;;;6.75;3.50;;;;;-147.17;100.00;-15917.19;5022211;28;51141;-59
2023/02/25 03:58:41;;;;;;;;;6.00;4.50;;;;;-147.17;100.00;-15917.19;5026547;28;51094;-58
2023/02/25 04:01:14;;;;;;;;;4.00;3.00;;;;;-147.17;100.00;-15917.19;5025899;28;51077;-58
2023/02/25 04:03:39;;;;;;;;;3.00;3.00;;;;;-147.17;100.00;-15917.19;5014134;28;51287;-60
2023/02/25 04:06:05;;;;;;;;;3.25;2.25;;;;;-147.17;100.00;-15917.19;5002480;28;51094;-60
2023/02/25 04:08:30;;;;;;;;;4.00;3.00;;;;;-147.17;100.00;-15917.19;4996648;28;53869;-59
2023/02/25 04:10:55;;;;;;;;;4.50;4.00;;;;;-147.17;100.00;-15917.19;5022832;28;51052;-59
2023/02/25 04:13:21;;;;;;;;;6.25;4.50;;;;;-147.17;100.00;-15917.19;5031436;28;51124;-59
2023/02/25 04:15:47;;;;;;;;;3.75;3.00;;;;;-147.17;100.00;-15917.19;5024860;28;51081;-59
2023/02/25 04:18:13;;;;;;;;;4.50;4.50;;;;;-147.17;100.00;-15917.19;5032806;28;50902;-59
2023/02/25 04:20:39;;;;;;;;;5.00;4.00;;;;;-147.17;100.00;-15917.19;5024887;28;51043;-60
2023/02/25 04:23:05;;;;;;;;;8.75;4.00;;;;;-147.17;100.00;-15917.19;5021150;28;51184;-59
2023/02/25 04:25:31;;;;;;;;;6.00;6.00;;;;;-147.17;100.00;-15917.19;5031524;28;51260;-59
2023/02/25 04:27:57;;;;;;;;;7.50;5.00;;;;;-147.17;100.00;-15917.19;5026306;28;52322;-58
2023/02/25 04:30:22;;;;;;;;;6.00;4.00;;;;;-147.17;100.00;-15917.19;5025839;28;51077;-59
2023/02/25 04:32:47;;;;;;;;;4.00;4.00;;;;;-147.17;100.00;-15917.19;5032746;28;51173;-60
2023/02/25 04:35:13;;;;;;;;;6.50;4.75;;;;;-147.17;100.00;-15917.19;5019298;28;50993;-60
2023/02/25 04:37:40;;;;;;;;;4.00;3.00;;;;;-147.17;100.00;-15917.19;5032396;28;52144;-59
2023/02/25 04:40:12;;;;;;;;;6.50;4.50;;;;;-147.17;100.00;-15917.19;5015134;28;51332;-59
2023/02/25 04:42:38;;;;;;;;;4.00;3.75;;;;;-147.17;100.00;-15917.19;5024172;28;51050;-59
2023/02/25 04:45:05;;;;;;;;;4.50;4.00;;;;;-147.17;100.00;-15917.19;5022574;28;52146;-59
2023/02/25 04:47:31;;;;;;;;;5.00;4.00;;;;;-147.17;100.00;-15917.19;5025482;28;52238;-59
2023/02/25 04:49:56;;;;;;;;;3.00;2.75;;;;;-147.17;100.00;-15917.19;5026008;28;51153;-60
2023/02/25 04:52:22;;;;;;;;;4.50;3.00;;;;;-147.17;100.00;-15917.19;5019204;28;52080;-60
2023/02/25 04:54:47;;;;;;;;;7.75;5.00;;;;;-147.17;100.00;-15917.19;5013638;28;51256;-59
2023/02/25 04:57:13;;;;;;;;;6.75;3.25;;;;;-147.17;100.00;-15917.19;5013123;28;51797;-61
2023/02/25 04:59:39;;;;;;;;;3.00;2.50;;;;;-147.17;100.00;-15917.19;5017988;28;50971;-59
2023/02/25 05:02:06;;;;;;;;;4.50;4.00;;;;;-147.17;100.00;-15917.19;5025791;28;51112;-59
2023/02/25 05:04:33;;;;;;;;;6.75;2.75;;;;;-147.17;100.00;-15917.19;5019783;28;51126;-58
2023/02/25 05:06:59;;;;;;;;;3.00;2.00;;;;;-147.17;100.00;-15917.19;5016061;28;53182;-58
2023/02/25 05:09:24;;;;;;;;;7.50;6.00;;;;;-147.17;100.00;-15917.19;5020316;28;51079;-60
2023/02/25 05:11:50;;;;;;;;;3.00;3.00;;;;;-147.17;100.00;-15917.19;5024665;28;51449;-59
2023/02/25 05:14:17;;;;;;;;;4.00;4.00;;;;;-147.17;100.00;-15917.19;5001119;28;51289;-59
2023/02/25 05:16:42;;;;;;;;;5.50;2.75;;;;;-147.17;100.00;-15917.19;5013830;28;51666;-60
2023/02/25 05:19:08;;;;;;;;;3.00;2.00;;;;;-147.17;100.00;-15917.19;5018922;28;50955;-59
2023/02/25 05:21:33;;;;;;;;;11.50;9.00;;;;;-147.17;100.00;-15917.19;5012185;28;51309;-60
2023/02/25 05:23:59;;;;;;;;;2.25;2.00;;;;;-147.17;100.00;-15917.19;5014956;28;52735;-59
2023/02/25 05:26:24;;;;;;;;;3.75;3.00;;;;;-147.17;100.00;-15917.19;5013203;28;51412;-59
2023/02/25 05:28:56;;;;;;;;;2.50;1.50;;;;;-147.17;100.00;-15917.19;5013125;28;51216;-59
2023/02/25 05:31:23;;;;;;;;;2.75;1.75;;;;;-147.17;100.00;-15917.19;5009572;28;51235;-60
2023/02/25 05:33:49;;;;;;;;;3.25;2.75;;;;;-147.17;100.00;-15917.19;5019131;28;51313;-59
2023/02/25 05:36:15;;;;;;;;;3.00;2.00;;;;;-147.17;100.00;-15917.19;5027815;28;52062;-59
2023/02/25 05:38:41;;;;;;;;;3.25;3.25;;;;;-147.17;100.00;-15917.19;5018504;28;51036;-59
2023/02/25 05:41:08;;;;;;;;;1.75;1.75;;;;;-147.17;100.00;-15917.19;5013900;28;51229;-60
2023/02/25 05:43:34;;;;;;;;;1.25;1.25;;;;;-147.17;100.00;-15917.19;5026054;28;51118;-59
2023/02/25 05:46:02;;;;;;;;;1.75;1.75;;;;;-147.17;100.00;-15917.19;5016692;28;52081;-59
2023/02/25 05:48:27;;;;;;;;;4.75;3.75;;;;;-147.17;100.00;-15917.19;5013284;28;51051;-60
2023/02/25 05:51:00;;;;;;;;;2.00;2.00;;;;;-147.17;100.00;-15917.19;5022185;28;50937;-59
2023/02/25 05:53:25;;;;;;;;;3.75;3.50;;;;;-147.17;100.00;-15917.19;5030762;28;51043;-59
2023/02/25 05:55:51;;;;;;;;;4.00;2.75;;;;;-147.17;100.00;-15917.19;5016811;28;51539;-59
2023/02/25 05:58:16;;;;;;;;;2.00;2.00;;;;;-147.17;100.00;-15917.19;5029727;28;51146;-59
2023/02/25 06:00:42;;;;;;;;;4.25;3.00;;;;;-147.17;100.00;-15917.19;5020830;28;51672;-59
2023/02/25 06:03:08;;;;;;;;;5.00;2.25;;;;;-147.17;100.00;-15917.19;5012490;28;51348;-59
2023/02/25 06:05:33;;;;;;;;;3.00;3.00;;;;;-147.17;100.00;-15917.19;5015927;28;51470;-61
2023/02/25 06:07:59;;;;;;;;;3.25;2.50;;;;;-147.17;100.00;-15917.19;5021194;28;51256;-59
2023/02/25 06:10:25;;;;;;;;;6.25;4.25;;;;;-147.17;100.00;-15917.19;5022165;28;53164;-60
2023/02/25 06:12:50;;;;;;;;;1.25;1.00;;;;;-147.17;100.00;-15917.19;5021210;28;51249;-58
2023/02/25 06:15:16;;;;;;;;;2.75;1.00;;;;;-147.17;100.00;-15917.19;5031540;28;50966;-58
2023/02/25 06:17:41;;;;;;;;;4.75;3.00;;;;;-147.17;100.00;-15917.19;5030281;28;51247;-58
2023/02/25 06:20:08;;;;;;;;;2.00;1.50;;;;;-147.17;100.00;-15917.19;5015972;28;51106;-59
2023/02/25 06:22:33;;;;;;;;;2.00;2.00;;;;;-147.17;100.00;-15917.19;5018154;28;51130;-59
2023/02/25 06:24:59;;;;;;;;;4.50;2.25;;;;;-147.17;100.00;-15917.19;5023365;28;51431;-59
2023/02/25 06:27:24;;;;;;;;;2.25;2.00;;;;;-147.17;100.00;-15917.19;5022905;28;51232;-58
2023/02/25 06:29:49;;;;;;;;;1.75;1.50;;;;;-147.17;100.00;-15917.19;5004772;28;51095;-60
2023/02/25 06:32:16;;;;;;;;;2.00;2.00;;;;;-147.17;100.00;-15917.19;5001345;28;51391;-60
2023/02/25 06:34:41;;;;;;;;;3.00;2.75;;;;;-147.17;100.00;-15917.19;5003869;28;52751;-60
2023/02/25 06:37:07;;;;;;;;;7.00;4.00;;;;;-147.17;100.00;-15917.19;5027528;28;51197;-60
2023/02/25 06:39:33;;;;;;;;;3.00;2.75;;;;;-147.17;100.00;-15917.19;5017946;28;51242;-58
2023/02/25 06:41:58;;;;;;;;;2.00;2.00;;;;;-147.17;100.00;-15917.19;5014856;28;51243;-58
2023/02/25 06:44:24;;;;;;;;;5.75;3.75;;;;;-147.17;100.00;-15917.19;5020726;28;51169;-59
2023/02/25 06:46:55;;;;;;;;;4.00;3.00;;;;;-147.17;100.00;-15917.19;5026178;28;51226;-59
2023/02/25 06:49:21;;;;;;;;;2.00;1.00;;;;;-147.17;100.00;-15917.19;5021955;28;51285;-59
2023/02/25 06:51:50;;;;;;;;;5.00;4.50;;;;;-147.17;100.00;-15917.19;5016595;28;52994;-59
2023/02/25 06:54:16;;;;;;;;;2.50;2.50;;;;;-147.17;100.00;-15917.19;5015331;28;52294;-59
2023/02/25 06:56:42;;;;;;;;;2.25;2.00;;;;;-147.17;100.00;-15917.19;5029553;28;51165;-59
2023/02/25 06:59:08;;;;;;;;;2.00;1.75;;;;;-147.17;100.00;-15917.19;5029544;28;51166;-60
2023/02/25 07:01:33;;;;;;;;;1.00;0.25;;;;;-147.17;100.00;-15917.19;5022073;28;51067;-59
2023/02/25 07:03:59;;;;;;;;;1.25;1.25;;;;;-147.17;100.00;-15917.19;5017929;28;52167;-60
2023/02/25 07:06:25;;;;;;;;;5.75;3.00;;;;;-147.17;100.00;-15917.19;5025006;28;51043;-58
2023/02/25 07:08:50;;;;;;;;;1.50;1.25;;;;;-147.17;100.00;-15917.19;5014816;28;51114;-60
2023/02/25 07:11:16;;;;;;;;;4.00;2.75;;;;;-147.17;100.00;-15917.19;5023024;28;51505;-59
2023/02/25 07:13:42;;;;;;;;;1.25;1.25;;;;;-147.17;100.00;-15917.19;5035368;28;51631;-60
2023/02/25 07:16:09;;;;;;;;;4.00;2.50;;;;;-147.17;100.00;-15917.19;5031769;28;50989;-59
2023/02/25 07:18:34;;;;;;;;;5.00;4.75;;;;;-147.17;100.00;-15917.19;5028502;28;51034;-59
2023/02/25 07:21:00;;;;;;;;;2.00;2.00;;;;;-147.17;100.00;-15917.19;5030999;28;51068;-59
2023/02/25 07:23:25;;;;;;;;;2.25;2.25;;;;;-147.17;100.00;-15917.19;5014070;28;51495;-60
2023/02/25 07:25:50;;;;;;;;;2.50;2.50;;;;;-147.17;100.00;-15917.19;5034949;28;50990;-59
2023/02/25 07:28:16;;;;;;;;;2.00;1.75;;;;;-147.17;100.00;-15917.19;4997562;28;51088;-59
2023/02/25 07:30:41;;;;;;;;;1.50;1.00;;;;;-147.17;100.00;-15917.19;5018411;28;51279;-60
2023/02/25 07:33:07;;;;;;;;;2.00;2.00;;;;;-147.17;100.00;-15917.19;5009237;28;53220;-59
2023/02/25 07:35:32;;;;;;;;;2.75;2.00;;;;;-147.17;100.00;-15917.19;5025371;28;51176;-60
2023/02/25 07:37:58;;;;;;;;;6.25;3.00;;;;;-147.17;100.00;-15917.19;5031349;28;51053;-61
2023/02/25 07:40:23;;;;;;;;;3.00;3.00;;;;;-147.17;100.00;-15917.19;5022886;28;51501;-60
2023/02/25 07:42:49;;;;;;;;;4.00;3.00;;;;;-147.17;100.00;-15917.19;5023005;28;51849;-59
2023/02/25 07:45:15;;;;;;;;;5.00;3.75;;;;;-147.17;100.00;-15917.19;5021889;28;51184;-58
2023/02/25 07:47:41;;;;;;;;;2.25;2.25;;;;;-147.17;100.00;-15917.19;5021019;28;51146;-59
2023/02/25 07:50:07;;;;;;;;;3.00;3.00;;;;;-147.17;100.00;-15917.19;5022259;28;51074;-60
2023/02/25 07:52:33;;;;;;;;;2.50;2.50;;;;;-147.17;100.00;-15917.19;5021466;28;52916;-59
2023/02/25 07:54:58;;;;;;;;;2.75;2.50;;;;;-147.17;100.00;-15917.19;5033357;28;51065;-59
2023/02/25 07:57:24;;;;;;;;;1.00;1.00;;;;;-147.17;100.00;-15917.19;5033405;28;51189;-60
2023/02/25 07:59:49;;;;;;;;;4.50;4.50;;;;;-147.17;100.00;-15917.19;5031962;28;50971;-58
2023/02/25 08:02:14;;;;;;;;;4.25;2.00;;;;;-147.17;100.00;-15917.19;5007688;28;54258;-59
2023/02/25 08:04:40;;;;;;;;;2.00;2.00;;;;;-147.17;100.00;-15917.19;5030240;28;51078;-60
2023/02/25 08:07:06;;;;;;;;;2.25;2.00;;;;;-147.17;100.00;-15917.19;5034256;28;51461;-60
2023/02/25 08:09:31;;;;;;;;;3.00;2.00;;;;;-147.17;100.00;-15917.19;5023257;28;51035;-58
2023/02/25 08:11:57;;;;;;;;;2.25;2.25;;;;;-147.17;100.00;-15917.19;5027117;28;52277;-59
2023/02/25 08:14:22;;;;;;;;;1.75;1.75;;;;;-147.17;100.00;-15917.19;5025304;28;51249;-59
2023/02/25 08:16:48;;;;;;;;;5.25;3.00;;;;;-147.17;100.00;-15917.19;5015260;28;51278;-59
2023/02/25 08:19:14;;;;;;;;;2.00;1.00;;;;;-147.17;100.00;-15917.19;5017159;28;51183;-59
2023/02/25 08:21:39;;;;;;;;;2.00;1.75;;;;;-147.17;100.00;-15917.19;5027178;28;51615;-59
2023/02/25 08:24:08;;;;;;;;;2.50;2.00;;;;;-147.17;100.00;-15917.19;5026802;28;51030;-59
2023/02/25 08:26:34;;;;;;;;;3.50;2.50;;;;;-147.17;100.00;-15917.19;5019033;28;51029;-59
2023/02/25 08:29:02;;;;;;;;;2.75;2.00;;;;;-147.17;100.00;-15917.19;5014192;28;50915;-60
2023/02/25 08:31:27;;;;;;;;;3.00;2.25;;;;;-147.17;100.00;-15917.19;5026207;28;51914;-61
2023/02/25 08:33:53;;;;;;;;;2.75;1.25;;;;;-147.17;100.00;-15917.19;5020338;28;51104;-59
2023/02/25 08:36:21;;;;;;;;;2.00;2.00;;;;;-147.17;100.00;-15917.19;5002555;28;51164;-59
2023/02/25 08:38:49;;;;;;;;;1.00;1.00;;;;;-147.17;100.00;-15917.19;5024983;28;51196;-59
2023/02/25 08:41:14;;;;;;;;;3.00;3.00;;;;;-147.17;100.00;-15917.19;5013769;28;51118;-59
2023/02/25 08:43:40;;;;;;;;;3.00;2.00;;;;;-147.17;100.00;-15917.19;5013621;28;50968;-59
2023/02/25 08:46:06;;;;;;;;;2.00;2.00;;;;;-147.17;100.00;-15917.19;5014739;28;51164;-61
2023/02/25 08:48:32;;;;;;;;;2.00;2.00;;;;;-147.17;100.00;-15917.19;5013248;28;51251;-59
2023/02/25 08:51:07;;;;;;;;;3.00;3.00;;;;;-147.17;100.00;-15917.19;5002586;28;52958;-59
2023/02/25 08:53:34;;;;;;;;;3.33;3.33;;;;;-147.17;100.00;-15917.19;5013539;28;51180;-59
2023/02/25 08:56:04;;;;;;;;;3.00;2.33;;;;;-147.17;100.00;-15917.19;5014018;28;50996;-60
2023/02/25 08:58:30;;;;;;;;;3.67;2.67;;;;;-147.17;100.00;-15917.19;5016899;28;51328;-60
2023/02/25 09:00:55;;;;;;;;;3.00;3.00;;;;;-147.17;100.00;-15915.72;5001833;28;53276;-60
2023/02/25 09:03:21;;;;;;;;;3.00;3.00;;;;;-147.17;100.00;-15420.25;5004931;28;51121;-59
2023/02/25 09:05:51;;;;;;;;;3.00;2.67;;;;;-147.17;100.00;-14181.31;5013763;28;51199;-59
2023/02/25 09:08:17;;;;;;;;;2.00;2.00;;;;;-147.17;100.00;-13933.50;5026225;28;51894;-59
2023/02/25 09:10:42;;;;;;;;;2.67;2.67;;;;;-147.17;100.00;-13685.63;5028636;28;51882;-60
2023/02/25 09:13:07;;;;;;;;;2.67;2.00;;;;;-147.17;100.00;-11702.25;5014230;28;51095;-60
2023/02/25 09:15:33;;;;;;;;;1.67;1.67;;;;;-147.17;100.00;-8973.38;5013055;28;51174;-59
2023/02/25 09:17:58;;;;;;;;;2.00;2.00;;;;;-147.17;100.00;-9221.53;5013009;28;51386;-59
2023/02/25 09:20:24;;;;;;;;;4.00;4.00;;;;;-147.17;100.00;-9221.53;5019286;28;51940;-59
2023/02/25 09:22:50;;;;;;;;;5.33;4.33;;;;;-147.17;100.00;-10958.19;5031891;28;51163;-59
2023/02/25 09:25:15;;;;;;;;;4.33;3.33;;;;;-147.17;100.00;-8725.22;5031949;28;50945;-59
2023/02/25 09:27:41;;;;;;;;;5.33;5.00;;;;;-147.17;100.00;-8228.81;5031686;28;51139;-60
2023/02/25 09:30:07;;;;;;;;;3.67;3.00;;;;;-147.17;100.00;-8228.81;5028011;28;52185;-59
2023/02/25 09:32:33;;;;;;;;;5.00;3.00;;;;;-147.17;100.00;-7235.84;5013446;28;50956;-59
2023/02/25 09:35:05;;;;;;;;;4.00;4.00;;;;;-147.17;100.00;-4503.81;5033146;28;51219;-58
2023/02/25 09:37:32;;;;;;;;;5.00;4.00;;;;;-147.17;100.00;-2515.66;5025163;28;51291;-61
2023/02/25 09:39:57;;;;;;;;;5.00;4.00;;;;;-147.17;100.00;-3012.78;5018920;28;53240;-60
2023/02/25 09:42:26;;;;;;;;;3.33;2.33;;;;;-147.17;100.00;-526.47;5032697;28;51129;-59
2023/02/25 09:45:00;;;;;;;;;4.67;4.67;;;;;-147.17;100.00;-29.03;5028366;28;50938;-58
2023/02/25 09:47:32;;;;;;;;;4.00;4.00;;;;;-147.17;100.00;-775.19;5026242;28;51177;-60
2023/02/25 09:50:13;;;;;;;;;4.67;4.33;;;;;-147.17;100.00;1463.72;5021782;28;51631;-55
2023/02/25 09:52:43;;;;;;;;;5.00;4.67;;;;;-147.17;100.00;1214.91;5031158;28;51231;-57
2023/02/25 09:55:21;;;;;;;;;4.00;3.67;;;;;-147.17;100.00;2459.22;5026373;28;51165;-55
2023/02/25 09:57:58;;;;;;;;;4.67;3.67;;;;;-147.17;100.00;1214.91;5026260;28;51134;-54
2023/02/25 10:00:23;;;;;;;;;5.67;4.33;;;;;-147.17;100.00;6692.91;5023492;28;51957;-55
2023/02/25 10:02:53;;;;;;;;;3.67;3.67;;;;;-147.17;100.00;8188.25;5010962;28;51086;-55
2023/02/25 10:05:43;;;;;;;;;3.00;2.00;;;;;-147.17;100.00;10681.81;5016051;28;51138;-57
2023/02/25 10:08:19;;;;;;;;;3.67;3.00;;;;;-147.17;100.00;9434.84;5017257;28;51218;-56
2023/02/25 10:11:04;;;;;;;;;5.00;3.67;;;;;-147.17;100.00;8686.84;5015433;28;52752;-56
2023/02/25 10:14:10;;;;;;;;;2.67;2.67;;;;;-147.17;100.00;8936.16;5025740;28;51158;-56
2023/02/25 10:16:55;;;;;;;;;3.67;3.00;;;;;-147.17;100.00;7191.28;4986528;28;50948;-55
2023/02/25 10:19:42;;;;;;;;;4.33;3.33;;;;;-147.17;100.00;7689.75;5018545;28;51640;-55
2023/02/25 10:22:25;;;;;;;;;2.00;2.00;;;;;-147.17;100.00;12927.34;5031365;28;52052;-56
2023/02/25 10:25:03;;;;;;;;;3.33;2.33;;;;;-147.17;100.00;10432.38;5029757;28;51030;-53
2023/02/25 10:27:44;;;;;;;;;2.00;1.00;;;;;-147.17;100.00;10931.25;5028011;28;51117;-55
2023/02/25 10:30:18;;;;;;;;;1.67;1.67;;;;;-147.17;100.00;11929.16;5018198;28;51086;-57
2023/02/25 10:32:44;;;;;;;;;2.67;2.67;;;;;-147.17;100.00;13426.53;5032440;28;50991;-55
2023/02/25 10:35:19;;;;;;;;;3.00;2.00;;;;;-147.17;100.00;16173.25;5015333;28;51139;-56
2023/02/25 10:37:44;;;;;;;;;3.00;2.33;;;;;-147.17;100.00;14425.13;5027493;28;51456;-54
2023/02/25 10:40:14;;;;;;;;;2.00;2.00;;;;;-147.17;100.00;14425.13;5031744;28;51247;-55
2023/02/25 10:42:47;;;;;;;;;4.00;3.33;;;;;-147.17;100.00;11430.19;5027735;28;53074;-55
2023/02/25 10:45:19;;;;;;;;;4.00;3.00;;;;;-147.17;100.00;11180.69;5030750;28;51085;-54
2023/02/25 10:47:48;;;;;;;;;4.00;4.00;;;;;-147.17;100.00;10681.81;5029635;28;51161;-56
2023/02/25 10:50:19;;;;;;;;;4.00;3.33;;;;;-147.17;100.00;10681.81;5015322;28;51366;-55
2023/02/25 10:52:53;;;;;;;;;3.00;2.00;;;;;-147.17;100.00;10681.81;5016497;28;53100;-55
2023/02/25 10:55:50;;;;;;;;;3.33;2.00;;;;;-147.17;100.00;12677.78;5015347;28;50845;-55
2023/02/25 10:58:33;;;;;;;;;2.00;2.00;;;;;-147.17;100.00;12677.78;5026036;28;51046;-55
2023/02/25 11:01:18;;;;;;;;;1.33;0.00;;;;;-147.17;100.00;16672.84;5022349;28;51138;-56
2023/02/25 11:03:59;;;;;;;;;3.33;2.00;;;;;-147.17;100.00;17172.50;5006510;28;51923;-55
2023/02/25 11:06:36;;;;;;;;;3.67;3.00;;;;;-147.17;100.00;15673.69;5017840;28;51897;-55
2023/02/25 11:09:25;;;;;;;;;2.00;2.00;;;;;-147.17;100.00;15423.94;5029637;28;51237;-56